Home   Weather   Cayenne   Past weeks
Flag for French Guiana

Past Weather in Cayenne, French Guiana — Yesterday and Last 2 Weeks

Currently: 75 °F. Clear. (Weather station: Cayenne / Rochambeau, French Guiana). See more current weather

Past Weather in Cayenne — Graph

°F

Cayenne Temperature Yesterday

Maximum temperature yesterday: 90 °F (at 2:30 pm)
Minimum temperature yesterday: 75 °F (at 12:00 am)
Average temperature yesterday: 81 °F

High & Low Weather Summary for the Past Weeks

 TemperatureHumidityPressure
High91 °F (Jun 17, 1:00 pm)100% (Jun 5, 3:00 am)30.01 "Hg (Jun 5, 3:00 am)
Low73 °F (Jun 10, 6:00 am)52% (Jun 17, 2:30 pm)29.77 "Hg (Jun 17, 3:30 pm)
Average80 °F90%29.90 "Hg
* Reported Jun 5 3:00 am — Jun 20 3:00 am, Cayenne. Weather by CustomWeather, © 2024

Note: Actual official high and low records may vary slightly from our data, if they occured in-between our weather recording intervals... More about our weather records

Cayenne Weather History for the Previous 24 Hours

Scroll right to see more
 ConditionsComfort  
Time TempWeatherWind HumidityBarometerVisibility
3:00 am
Thu, Jun 20
77 °FClear.No wind94%29.83 "Hg10 mi
2:30 am77 °FPartly cloudy.No wind94%29.83 "HgN/A
2:00 am77 °FPassing clouds.No wind94%29.86 "HgN/A
1:30 am77 °FLight rain. Passing clouds.3 mph100%29.86 "HgN/A
1:00 am77 °FPassing clouds.1 mph100%29.86 "HgN/A
12:30 am77 °FPassing clouds.No wind94%29.89 "HgN/A
12:00 am77 °FClear.1 mph94%29.89 "Hg10 mi
11:30 pm
Wed, Jun 19
77 °FWarm.2 mph94%29.89 "HgN/A
10:30 pm77 °FWarm.1 mph94%29.89 "HgN/A
10:00 pm79 °FClear.No wind89%29.89 "Hg10 mi
9:30 pm79 °FClear.1 mph89%29.89 "Hg10 mi
9:00 pm81 °FClear.2 mph84%29.89 "Hg10 mi
8:30 pm81 °FClear.2 mph84%29.86 "Hg10 mi
8:00 pm81 °FClear.5 mph84%29.86 "Hg10 mi
7:30 pm81 °FPassing clouds.7 mph84%29.86 "HgN/A
7:00 pm82 °FPassing clouds.9 mph79%29.83 "HgN/A
6:30 pm84 °FScattered clouds.10 mph74%29.83 "HgN/A
5:30 pm88 °FScattered clouds.10 mph62%29.80 "HgN/A
5:00 pm88 °FPassing clouds.8 mph66%29.80 "HgN/A
4:30 pm88 °FScattered clouds.7 mph62%29.80 "HgN/A
4:00 pm90 °FPartly sunny.9 mph67%29.80 "HgN/A
3:30 pm88 °FPassing clouds.7 mph66%29.80 "HgN/A
3:00 pm88 °FBroken clouds.9 mph66%29.83 "HgN/A
2:30 pm90 °FScattered clouds.10 mph63%29.86 "HgN/A
2:00 pm88 °FPartly sunny.7 mph66%29.86 "HgN/A
1:30 pm86 °FSunny.5 mph70%29.89 "Hg10 mi
1:00 pm86 °FBroken clouds.6 mph66%29.89 "HgN/A
12:30 pm84 °FScattered clouds.7 mph74%29.92 "HgN/A
12:00 pm84 °FPartly sunny.7 mph74%29.92 "HgN/A
11:30 am82 °FPartly sunny.8 mph79%29.92 "HgN/A
11:00 am82 °FPartly sunny.7 mph79%29.92 "HgN/A
10:00 am82 °FPartly sunny.12 mph79%29.92 "HgN/A
9:30 am81 °FPartly sunny.10 mph84%29.92 "HgN/A
8:30 am81 °FPassing clouds.6 mph84%29.92 "HgN/A
8:00 am77 °FSunny.2 mph94%29.89 "Hg10 mi
7:30 am77 °FSunny.2 mph94%29.89 "Hg10 mi
7:00 am77 °FSunny.2 mph94%29.86 "Hg10 mi
6:30 am75 °FSunny.1 mph100%29.86 "Hg10 mi
6:00 am75 °FMostly cloudy.3 mph100%29.86 "HgN/A
5:30 am75 °FClear.3 mph100%29.86 "Hg10 mi
5:00 am75 °FPassing clouds.3 mph100%29.83 "HgN/A
4:30 am77 °FFog.2 mph100%29.83 "HgN/A
4:00 am75 °FLight rain. Passing clouds.2 mph100%29.86 "HgN/A
Weather by CustomWeather, © 2024

See weather overview